KBYH

Details ICAO KBYH (BYH)
Name ARKANSAS INTL
Region United States
Timezone America/Chicago (UTC-6.0)
Plans Departing 5
Arriving 8
Stats Elevation 254 ft / 77 m (AMSL)
Location 35.964331° -89.943964°
Runways 1
Magnetic Variation 1.462° W
Sunrise 2017-12-12 13:02:30 UTC / 2017-12-12 07:02:30 Local
Sunset 2017-12-12 22:47:36 UTC / 2017-12-12 16:47:36 Local
Advertisement - Login to hide

Runways

ID Width Length Bearing (true) Bearing (mag) Surface Threshold Offset Overrun Length
18 151 ft / 46 m 11,629 ft / 3,545 m 180.00° 181.46° Asphalt 0 ft / 0 m 1,001 ft / 305 m
36 151 ft / 46 m 11,629 ft / 3,545 m 0.00° 1.46° Asphalt 0 ft / 0 m 1,001 ft / 305 m

Approach Navaids

Runway Type Ident Frequency Range Bearing (true) Bearing (mag) Slope Elevation
18 Localiser IBYH 110.30 MHz 18 nm / 33 km 180.00° 181.46° - 254 ft / 77 m (AMSL)
18 Glidescope IBYH 110.30 MHz 10 nm / 19 km 180.00° 181.46° 3.00° 249 ft / 76 m (AMSL)
18 DME IBYH 110.30 MHz 18 nm / 33 km - - - 254 ft / 77 m (AMSL)

Map

Weather


0- 5 10 15 20 25 30 35+ Temperature / ° C

Clouds and Precipitation
Forecast for 2017-12-13 00:00 UTC. Updated an hour ago

Ground ~20,000 ft ~40,000 ft Winds

METAR

KBYH 122250Z 30006KT 10SM SKC 06/M07 A3016 RMK LAST

TAF

Not found

Frequencies

Unicom 122.70 MHz CTAF/UNICOM
Approach 134.65 MHz MEMPHIS CNTR
Warning: Do not use this data for real-world aviation or navigation. No guarantee of current accuracy is given.